createdAt,value
2017-11-19T00:01:10.860Z,5.80
2017-11-19T00:03:38.362Z,5.80
2017-11-19T00:06:06.683Z,5.90
2017-11-19T00:08:34.185Z,5.80
2017-11-19T00:11:01.718Z,5.90
2017-11-19T00:13:29.237Z,5.90
2017-11-19T00:15:56.792Z,5.90
2017-11-19T00:18:24.294Z,5.90
2017-11-19T00:20:52.566Z,5.90
2017-11-19T00:23:20.122Z,5.90
2017-11-19T00:25:47.614Z,6.00
2017-11-19T00:28:15.152Z,6.00
2017-11-19T00:30:43.518Z,6.00
2017-11-19T00:33:11.067Z,6.00
2017-11-19T00:35:39.330Z,6.00
2017-11-19T00:38:06.835Z,6.00
2017-11-19T00:40:35.142Z,5.90
2017-11-19T00:43:02.650Z,5.90
2017-11-19T00:45:30.182Z,5.90
2017-11-19T00:47:57.689Z,5.90
2017-11-19T00:50:25.228Z,6.00
2017-11-19T00:52:52.727Z,6.00
2017-11-19T00:55:20.274Z,6.00
2017-11-19T00:57:47.767Z,6.00
2017-11-19T01:00:15.317Z,6.00
2017-11-19T01:02:42.801Z,5.90
2017-11-19T01:05:28.934Z,5.60
2017-11-19T01:07:56.454Z,5.40
2017-11-19T01:10:23.971Z,5.30
2017-11-19T01:12:51.519Z,5.20
2017-11-19T01:15:19.008Z,5.10
2017-11-19T01:17:46.542Z,5.10
2017-11-19T01:20:14.054Z,5.10
2017-11-19T01:22:41.595Z,5.10
2017-11-19T01:25:09.863Z,5.00
2017-11-19T01:27:38.184Z,5.00
2017-11-19T01:30:05.694Z,5.00
2017-11-19T01:32:33.230Z,5.00
2017-11-19T01:35:00.774Z,5.00
2017-11-19T01:37:29.093Z,5.00
2017-11-19T01:39:56.592Z,5.00
2017-11-19T01:42:24.133Z,5.00
2017-11-19T01:44:51.654Z,4.90
2017-11-19T01:47:19.150Z,4.90
2017-11-19T01:49:47.439Z,4.90
2017-11-19T01:52:15.693Z,4.90
2017-11-19T01:54:43.339Z,4.90
2017-11-19T01:57:10.858Z,4.90
2017-11-19T01:59:39.167Z,4.80
2017-11-19T02:02:07.433Z,4.80
2017-11-19T02:04:35.741Z,4.70
2017-11-19T02:07:04.031Z,4.60
2017-11-19T02:09:31.562Z,4.60
2017-11-19T02:11:59.077Z,4.50
2017-11-19T02:14:27.352Z,4.40
2017-11-19T02:16:54.921Z,4.30
2017-11-19T02:19:23.184Z,4.40
2017-11-19T02:21:50.721Z,4.40
2017-11-19T02:24:18.228Z,4.50
2017-11-19T02:26:45.746Z,4.60
2017-11-19T02:29:14.002Z,4.70
2017-11-19T02:31:41.530Z,4.70
2017-11-19T02:34:09.027Z,4.80
2017-11-19T02:36:36.577Z,4.80
2017-11-19T02:39:04.140Z,4.90
2017-11-19T02:41:31.659Z,4.90
2017-11-19T02:43:59.184Z,4.90
2017-11-19T02:46:26.697Z,5.00
2017-11-19T02:48:54.469Z,5.00
2017-11-19T02:51:22.105Z,5.00
2017-11-19T02:53:49.643Z,5.00
2017-11-19T02:56:17.143Z,5.00
2017-11-19T02:58:44.659Z,5.00
2017-11-19T03:01:12.142Z,5.00
2017-11-19T03:03:39.659Z,5.00
2017-11-19T03:06:07.495Z,5.10
2017-11-19T03:08:35.027Z,5.10
2017-11-19T03:11:02.517Z,5.10
2017-11-19T03:13:30.078Z,5.00
2017-11-19T03:15:57.576Z,5.10
2017-11-19T03:18:25.107Z,5.00
2017-11-19T03:20:52.636Z,5.10
2017-11-19T03:23:20.895Z,4.90
2017-11-19T03:25:48.439Z,4.90
2017-11-19T03:28:15.928Z,4.90
2017-11-19T03:30:43.468Z,4.80
2017-11-19T03:33:10.959Z,4.70
2017-11-19T03:35:38.526Z,4.70
2017-11-19T03:38:06.026Z,4.70
2017-11-19T03:40:33.573Z,4.70
2017-11-19T03:43:01.873Z,4.60
2017-11-19T03:45:29.375Z,4.60
2017-11-19T03:47:56.939Z,4.50
2017-11-19T03:50:24.430Z,4.50
2017-11-19T03:52:52.722Z,4.30
2017-11-19T03:55:20.222Z,4.20
2017-11-19T03:57:47.769Z,4.10
2017-11-19T04:00:16.030Z,4.00
2017-11-19T04:02:43.574Z,4.00
2017-11-19T04:05:11.074Z,4.00
2017-11-19T04:07:38.622Z,3.90
2017-11-19T04:10:06.137Z,3.90
2017-11-19T04:12:34.417Z,3.80
2017-11-19T04:15:01.966Z,3.80
2017-11-19T04:17:29.470Z,3.80
2017-11-19T04:19:56.991Z,3.70
2017-11-19T04:22:24.514Z,3.70
2017-11-19T04:24:52.050Z,3.70
2017-11-19T04:27:19.547Z,3.70
2017-11-19T04:29:47.090Z,3.70
2017-11-19T04:32:14.613Z,3.60
2017-11-19T04:34:42.927Z,3.60
2017-11-19T04:37:10.435Z,3.60
2017-11-19T04:39:37.978Z,3.60
2017-11-19T04:42:05.480Z,3.50
2017-11-19T04:44:33.165Z,3.50
2017-11-19T04:47:00.668Z,3.50
2017-11-19T04:49:28.934Z,3.50
2017-11-19T04:51:56.487Z,3.50
2017-11-19T04:54:24.314Z,3.50
2017-11-19T04:56:51.846Z,3.50
2017-11-19T04:59:19.347Z,3.50
2017-11-19T05:01:46.905Z,3.50
2017-11-19T05:04:14.407Z,3.60
2017-11-19T05:06:41.942Z,3.60
2017-11-19T05:09:09.445Z,3.70
2017-11-19T05:11:37.008Z,3.80
2017-11-19T05:14:05.270Z,3.80
2017-11-19T05:16:32.767Z,3.70
2017-11-19T05:19:01.067Z,3.70
2017-11-19T05:21:29.330Z,3.80
2017-11-19T05:23:56.941Z,3.70
2017-11-19T05:26:24.440Z,3.70
2017-11-19T05:28:51.974Z,3.70
2017-11-19T05:31:19.478Z,3.60
2017-11-19T05:33:47.011Z,3.60
2017-11-19T05:36:15.294Z,3.50
2017-11-19T05:38:42.827Z,3.50
2017-11-19T05:41:10.346Z,3.50
2017-11-19T05:43:37.842Z,3.40
2017-11-19T05:46:05.385Z,3.40
2017-11-19T05:48:33.659Z,3.40
2017-11-19T05:51:01.957Z,3.30
2017-11-19T05:53:30.223Z,3.20
2017-11-19T05:55:57.754Z,3.20
2017-11-19T05:58:25.252Z,3.20
2017-11-19T06:00:52.783Z,3.10
2017-11-19T06:03:20.274Z,3.10
2017-11-19T06:05:47.769Z,3.10
2017-11-19T06:08:15.306Z,3.10
2017-11-19T06:10:42.871Z,3.20
2017-11-19T06:13:10.390Z,3.10
2017-11-19T06:15:37.882Z,3.10
2017-11-19T06:18:05.607Z,3.10
2017-11-19T06:20:33.120Z,3.20
2017-11-19T06:23:00.675Z,3.30
2017-11-19T06:25:28.241Z,3.50
2017-11-19T06:27:55.786Z,3.60
2017-11-19T06:30:23.358Z,3.60
2017-11-19T06:32:50.859Z,3.70
2017-11-19T06:35:18.372Z,3.70
2017-11-19T06:37:46.663Z,3.70
2017-11-19T06:40:14.922Z,3.80
2017-11-19T06:42:42.467Z,3.80
2017-11-19T06:45:09.968Z,3.80
2017-11-19T06:47:37.516Z,3.90
2017-11-19T06:50:05.020Z,3.90
2017-11-19T06:52:32.587Z,3.90
2017-11-19T06:55:00.123Z,4.00
2017-11-19T06:57:27.735Z,4.10
2017-11-19T06:59:55.327Z,4.10
2017-11-19T07:02:22.830Z,4.20
2017-11-19T07:04:50.450Z,4.20
2017-11-19T07:07:18.012Z,4.20
2017-11-19T07:09:45.540Z,4.30
2017-11-19T07:12:13.167Z,4.30
2017-11-19T07:14:40.715Z,4.40
2017-11-19T07:17:08.232Z,4.40
2017-11-19T07:19:36.530Z,4.40
2017-11-19T07:22:04.796Z,4.50
2017-11-19T07:24:32.332Z,4.40
2017-11-19T07:26:59.830Z,4.50
2017-11-19T07:29:27.342Z,4.60
2017-11-19T07:31:55.751Z,4.70
2017-11-19T07:34:23.280Z,4.70
2017-11-19T07:36:50.811Z,4.70
2017-11-19T07:39:18.308Z,4.80
2017-11-19T07:41:45.835Z,4.80
2017-11-19T07:44:13.340Z,4.90
2017-11-19T07:46:40.868Z,4.90
2017-11-19T07:49:09.131Z,5.00
2017-11-19T07:51:36.675Z,4.90
2017-11-19T07:54:04.179Z,5.00
2017-11-19T07:56:31.693Z,5.20
2017-11-19T07:58:59.298Z,5.40
2017-11-19T08:01:26.796Z,5.50
2017-11-19T08:03:54.328Z,5.70
2017-11-19T08:06:21.822Z,5.80
2017-11-19T08:08:49.347Z,5.90
2017-11-19T08:11:17.611Z,5.90
2017-11-19T08:13:45.178Z,5.80
2017-11-19T08:16:12.675Z,5.70
2017-11-19T08:18:40.205Z,5.60
2017-11-19T08:21:07.690Z,5.50
2017-11-19T08:23:35.234Z,5.40
2017-11-19T08:26:02.757Z,5.40
2017-11-19T08:28:30.299Z,5.40
2017-11-19T08:30:57.800Z,5.50
2017-11-19T08:33:25.319Z,5.50
2017-11-19T08:35:52.896Z,5.40
2017-11-19T08:38:20.389Z,5.30
2017-11-19T08:40:47.978Z,5.40
2017-11-19T08:43:15.476Z,5.40
2017-11-19T08:45:43.789Z,6.10
2017-11-19T08:48:11.279Z,6.10
2017-11-19T08:50:38.817Z,7.80
2017-11-19T08:53:07.105Z,10.30
2017-11-19T08:55:36.451Z,10.00
2017-11-19T08:58:03.972Z,10.00
2017-11-19T09:00:31.589Z,9.20
2017-11-19T09:02:59.169Z,8.40
2017-11-19T09:05:26.770Z,7.50
2017-11-19T09:07:54.341Z,6.70
2017-11-19T09:10:21.830Z,6.20
2017-11-19T09:12:49.362Z,5.80
2017-11-19T09:15:17.241Z,5.60
2017-11-19T09:17:44.772Z,6.00
2017-11-19T09:20:12.304Z,7.60
2017-11-19T09:22:39.954Z,8.90
2017-11-19T09:25:07.457Z,9.50
2017-11-19T09:27:34.987Z,10.20
2017-11-19T09:30:02.525Z,10.90
2017-11-19T09:32:30.019Z,11.30
2017-11-19T09:34:57.575Z,11.80
2017-11-19T09:37:25.849Z,12.10
2017-11-19T09:39:53.374Z,12.00
2017-11-19T09:42:20.875Z,11.80
2017-11-19T09:44:48.411Z,11.50
2017-11-19T09:47:15.936Z,10.90
2017-11-19T09:49:44.262Z,11.50
2017-11-19T09:52:11.755Z,11.40
2017-11-19T09:54:39.317Z,12.00
2017-11-19T09:57:06.813Z,12.10
2017-11-19T09:59:34.351Z,12.30
2017-11-19T10:02:01.886Z,12.00
2017-11-19T10:04:29.511Z,12.50
2017-11-19T10:06:57.043Z,12.40
2017-11-19T10:09:25.385Z,12.30
2017-11-19T10:11:52.921Z,12.30
2017-11-19T10:14:20.430Z,12.40
2017-11-19T10:16:47.990Z,12.30
2017-11-19T10:19:15.508Z,12.40
2017-11-19T10:21:43.061Z,12.10
2017-11-19T10:24:10.566Z,11.90
2017-11-19T10:26:38.840Z,11.60
2017-11-19T10:29:06.430Z,11.60
2017-11-19T10:31:34.710Z,12.30
2017-11-19T10:34:02.249Z,12.30
2017-11-19T10:36:29.785Z,12.50
2017-11-19T10:38:57.391Z,11.70
2017-11-19T10:41:24.929Z,11.40
2017-11-19T10:43:52.479Z,11.40
2017-11-19T10:46:20.834Z,12.00
2017-11-19T10:48:48.435Z,12.00
2017-11-19T10:51:15.939Z,11.30
2017-11-19T10:53:43.450Z,11.20
2017-11-19T10:56:11.001Z,11.40
2017-11-19T10:58:38.510Z,11.30
2017-11-19T11:01:06.055Z,10.60
2017-11-19T11:03:33.570Z,10.10
2017-11-19T11:06:01.927Z,9.10
2017-11-19T11:08:29.639Z,9.10
2017-11-19T11:10:57.207Z,8.70
2017-11-19T11:13:24.799Z,8.40
2017-11-19T11:15:52.359Z,8.10
2017-11-19T11:18:19.887Z,7.80
2017-11-19T11:20:47.483Z,7.70
2017-11-19T11:23:15.803Z,7.70
2017-11-19T11:25:43.354Z,7.70
2017-11-19T11:28:10.911Z,7.80
2017-11-19T11:30:38.410Z,8.00
2017-11-19T11:33:06.726Z,8.20
2017-11-19T11:35:34.255Z,8.20
2017-11-19T11:38:01.797Z,8.10
2017-11-19T11:40:29.324Z,8.00
2017-11-19T11:42:57.702Z,8.30
2017-11-19T11:45:26.019Z,8.50
2017-11-19T11:47:53.521Z,8.50
2017-11-19T11:50:21.051Z,8.70
2017-11-19T11:52:49.520Z,8.80
2017-11-19T11:55:17.083Z,8.80
2017-11-19T11:57:44.587Z,8.90
2017-11-19T12:00:12.928Z,8.90
2017-11-19T12:02:40.458Z,8.90
2017-11-19T12:05:07.989Z,8.90
2017-11-19T12:07:35.558Z,8.90
2017-11-19T12:10:03.102Z,8.90
2017-11-19T12:12:30.630Z,8.90
2017-11-19T12:14:58.922Z,9.00
2017-11-19T12:17:27.224Z,8.90
2017-11-19T12:19:55.519Z,8.90
2017-11-19T12:22:23.179Z,8.90
2017-11-19T12:24:51.459Z,8.90
2017-11-19T12:27:18.972Z,8.90
2017-11-19T12:29:46.747Z,9.00
2017-11-19T12:32:14.254Z,9.30
2017-11-19T12:34:41.811Z,9.60
2017-11-19T12:37:09.322Z,9.50
2017-11-19T12:39:36.856Z,9.30
2017-11-19T12:42:04.371Z,9.10
2017-11-19T12:44:31.965Z,9.10
2017-11-19T12:46:59.488Z,9.30
2017-11-19T12:49:27.046Z,9.10
2017-11-19T12:51:54.740Z,9.10
2017-11-19T12:54:22.261Z,9.20
2017-11-19T12:56:49.818Z,9.10
2017-11-19T12:59:17.322Z,9.00
2017-11-19T13:01:44.951Z,9.00
2017-11-19T13:04:12.563Z,8.90
2017-11-19T13:06:40.101Z,9.00
2017-11-19T13:09:08.363Z,9.00
2017-11-19T13:11:35.897Z,8.90
2017-11-19T13:14:03.413Z,8.70
2017-11-19T13:16:31.052Z,8.60
2017-11-19T13:18:58.555Z,8.60
2017-11-19T13:21:26.072Z,8.60
2017-11-19T13:23:53.603Z,8.70
2017-11-19T13:26:21.107Z,8.80
2017-11-19T13:28:48.734Z,8.90
2017-11-19T13:31:16.330Z,8.90
2017-11-19T13:33:43.927Z,8.70
2017-11-19T13:36:11.500Z,8.60
2017-11-19T13:38:39.088Z,8.70
2017-11-19T13:41:07.417Z,8.80
2017-11-19T13:43:35.869Z,8.80
2017-11-19T13:46:03.417Z,8.90
2017-11-19T13:48:31.025Z,9.00
2017-11-19T13:50:58.758Z,9.10
2017-11-19T13:53:26.465Z,9.30
2017-11-19T13:55:54.869Z,9.20
2017-11-19T13:58:22.412Z,9.20
2017-11-19T14:00:49.955Z,9.30
2017-11-19T14:03:17.489Z,9.30
2017-11-19T14:05:45.123Z,9.20
2017-11-19T14:08:12.689Z,9.10
2017-11-19T14:10:41.099Z,8.80
2017-11-19T14:13:08.686Z,8.80
2017-11-19T14:15:36.203Z,8.70
2017-11-19T14:18:03.734Z,8.50
2017-11-19T14:20:31.240Z,8.30
2017-11-19T14:22:58.774Z,8.10
2017-11-19T14:25:26.287Z,7.90
2017-11-19T14:27:53.841Z,7.80
2017-11-19T14:30:21.339Z,7.80
2017-11-19T14:32:48.879Z,7.70
2017-11-19T14:35:16.385Z,7.70
2017-11-19T14:37:43.874Z,7.90
2017-11-19T14:40:11.400Z,8.00
2017-11-19T14:42:38.921Z,8.10
2017-11-19T14:45:06.455Z,8.10
2017-11-19T14:47:33.977Z,8.10
2017-11-19T14:50:02.618Z,8.00
2017-11-19T14:52:30.145Z,7.90
2017-11-19T14:57:32.391Z,7.70
2017-11-19T14:59:59.971Z,7.70
2017-11-19T15:02:27.502Z,7.70
2017-11-19T15:04:55.764Z,7.70
2017-11-19T15:07:23.296Z,7.70
2017-11-19T15:09:50.805Z,7.60
2017-11-19T15:12:18.468Z,7.40
2017-11-19T15:14:45.982Z,7.20
2017-11-19T15:17:14.301Z,6.90
2017-11-19T15:19:41.790Z,6.80
2017-11-19T15:22:09.343Z,6.70
2017-11-19T15:24:37.604Z,6.60
2017-11-19T15:27:05.913Z,6.50
2017-11-19T15:29:33.430Z,6.50
2017-11-19T15:32:00.931Z,6.50
2017-11-19T15:34:28.470Z,6.50
2017-11-19T15:36:55.966Z,6.50
2017-11-19T15:39:24.307Z,6.50
2017-11-19T15:41:52.680Z,6.50
2017-11-19T15:44:20.202Z,6.50
2017-11-19T15:46:47.708Z,6.60
2017-11-19T15:49:16.003Z,6.50
2017-11-19T15:51:43.499Z,6.50
2017-11-19T15:54:11.035Z,6.50
2017-11-19T15:56:39.298Z,6.50
2017-11-19T15:59:06.847Z,6.50
2017-11-19T16:01:34.499Z,6.50
2017-11-19T16:04:02.046Z,6.50
2017-11-19T16:06:30.327Z,6.60
2017-11-19T16:08:58.643Z,6.60
2017-11-19T16:11:26.144Z,6.60
2017-11-19T16:13:53.656Z,6.60
2017-11-19T16:16:21.198Z,6.60
2017-11-19T16:18:49.511Z,6.60
2017-11-19T16:21:17.062Z,6.60
2017-11-19T16:23:44.568Z,6.60
2017-11-19T16:26:12.886Z,6.60
2017-11-19T16:28:40.384Z,6.50
2017-11-19T16:31:07.929Z,6.60
2017-11-19T16:33:35.492Z,6.60
2017-11-19T16:36:03.015Z,6.60
2017-11-19T16:38:31.305Z,6.60
2017-11-19T16:40:58.909Z,6.60
2017-11-19T16:43:27.203Z,6.60
2017-11-19T16:45:55.485Z,6.60
2017-11-19T16:48:23.783Z,6.50
2017-11-19T16:50:51.295Z,6.60
2017-11-19T16:53:18.873Z,6.50
2017-11-19T16:55:46.394Z,6.40
2017-11-19T16:58:14.694Z,6.30
2017-11-19T17:00:42.208Z,6.30
2017-11-19T17:03:09.782Z,6.30
2017-11-19T17:05:37.298Z,6.30
2017-11-19T17:08:05.569Z,6.30
2017-11-19T17:10:33.114Z,6.30
2017-11-19T17:13:00.618Z,6.30
2017-11-19T17:15:28.980Z,6.30
2017-11-19T17:17:56.509Z,6.30
2017-11-19T17:20:24.058Z,6.40
2017-11-19T17:22:51.571Z,6.40
2017-11-19T17:25:19.186Z,6.40
2017-11-19T17:27:46.767Z,6.40
2017-11-19T17:30:14.262Z,6.30
2017-11-19T17:32:42.580Z,6.10
2017-11-19T17:35:10.091Z,6.10
2017-11-19T17:37:37.653Z,6.00
2017-11-19T17:40:05.177Z,5.90
2017-11-19T17:42:32.753Z,5.90
2017-11-19T17:45:00.257Z,5.90
2017-11-19T17:47:27.828Z,6.00
2017-11-19T17:49:56.298Z,5.90
2017-11-19T17:52:23.846Z,6.00
2017-11-19T17:54:51.361Z,6.00
2017-11-19T17:57:18.911Z,5.90
2017-11-19T17:59:46.411Z,5.90
2017-11-19T18:02:13.977Z,5.90
2017-11-19T18:04:41.675Z,5.90
2017-11-19T18:07:09.246Z,5.90
2017-11-19T18:09:36.811Z,5.90
2017-11-19T18:12:04.323Z,5.90
2017-11-19T18:14:32.663Z,5.80
2017-11-19T18:17:00.167Z,5.70
2017-11-19T18:19:27.739Z,5.70
2017-11-19T18:21:56.025Z,5.60
2017-11-19T18:24:23.563Z,5.60
2017-11-19T18:26:51.066Z,5.50
2017-11-19T18:29:18.602Z,5.50
2017-11-19T18:31:46.124Z,5.50
2017-11-19T18:34:14.435Z,5.70
2017-11-19T18:36:42.002Z,5.70
2017-11-19T18:39:09.538Z,5.80
2017-11-19T18:41:37.028Z,5.70
2017-11-19T18:44:04.555Z,5.80
2017-11-19T18:46:32.066Z,5.80
2017-11-19T18:48:59.619Z,5.70
2017-11-19T18:51:27.110Z,5.70
2017-11-19T18:53:54.648Z,5.80
2017-11-19T18:56:22.178Z,5.80
2017-11-19T18:58:50.436Z,5.60
2017-11-19T19:01:17.986Z,5.60
2017-11-19T19:03:45.482Z,5.50
2017-11-19T19:06:13.010Z,5.50
2017-11-19T19:08:40.511Z,5.40
2017-11-19T19:11:08.139Z,5.30
2017-11-19T19:13:35.649Z,5.40
2017-11-19T19:16:03.217Z,5.40
2017-11-19T19:18:30.727Z,5.40
2017-11-19T19:20:59.043Z,5.40
2017-11-19T19:23:26.557Z,5.30
2017-11-19T19:25:54.146Z,5.20
2017-11-19T19:28:21.646Z,5.10
2017-11-19T19:30:49.933Z,5.00
2017-11-19T19:33:17.632Z,5.00
2017-11-19T19:35:45.133Z,5.10
2017-11-19T19:38:12.717Z,5.00
2017-11-19T19:40:40.235Z,5.00
2017-11-19T19:43:07.784Z,5.10
2017-11-19T19:45:35.387Z,5.00
2017-11-19T19:48:02.982Z,5.00
2017-11-19T19:50:30.513Z,4.90
2017-11-19T19:52:58.068Z,5.10
2017-11-19T19:55:25.562Z,5.20
2017-11-19T19:57:53.136Z,5.30
2017-11-19T20:00:20.817Z,5.40
2017-11-19T20:02:48.731Z,5.40
2017-11-19T20:05:16.323Z,5.40
2017-11-19T20:07:43.827Z,5.50
2017-11-19T20:10:12.156Z,5.50
2017-11-19T20:12:39.652Z,5.50
2017-11-19T20:15:07.198Z,5.50
2017-11-19T20:17:34.701Z,5.60
2017-11-19T20:20:02.275Z,5.50
2017-11-19T20:22:29.779Z,5.50
2017-11-19T20:24:57.273Z,5.50
2017-11-19T20:27:24.880Z,5.50
2017-11-19T20:29:52.470Z,5.60
2017-11-19T20:32:20.116Z,5.60
2017-11-19T20:34:47.612Z,5.60
2017-11-19T20:37:15.174Z,5.60
2017-11-19T20:39:42.682Z,5.50
2017-11-19T20:42:10.237Z,5.50
2017-11-19T20:44:37.755Z,5.50
2017-11-19T20:47:05.292Z,5.40
2017-11-19T20:49:32.800Z,5.40
2017-11-19T20:52:00.423Z,5.30
2017-11-19T20:54:27.943Z,5.30
2017-11-19T20:56:55.473Z,5.30
2017-11-19T20:59:23.009Z,5.40
2017-11-19T21:01:50.549Z,5.50
2017-11-19T21:04:18.086Z,5.50
2017-11-19T21:06:45.590Z,5.50
2017-11-19T21:09:13.131Z,5.50
2017-11-19T21:11:40.636Z,5.50
2017-11-19T21:14:08.175Z,5.50
2017-11-19T21:16:35.678Z,5.60
2017-11-19T21:19:03.244Z,5.60
2017-11-19T21:21:31.543Z,5.70
2017-11-19T21:23:59.050Z,5.70
2017-11-19T21:26:26.593Z,5.70
2017-11-19T21:28:54.101Z,5.70
2017-11-19T21:31:21.681Z,5.70
2017-11-19T21:33:50.188Z,5.70
2017-11-19T21:36:17.878Z,5.60
2017-11-19T21:38:46.599Z,5.60
2017-11-19T21:41:14.106Z,5.60
2017-11-19T21:43:41.658Z,5.70
2017-11-19T21:46:10.091Z,5.60
2017-11-19T21:48:37.630Z,5.70
2017-11-19T21:51:05.142Z,5.60
2017-11-19T21:53:32.720Z,5.60
2017-11-19T21:56:00.285Z,5.60
2017-11-19T21:58:28.144Z,5.60
2017-11-19T22:00:55.644Z,5.60
2017-11-19T22:03:23.204Z,5.60
2017-11-19T22:05:50.722Z,5.60
2017-11-19T22:08:18.231Z,5.70
2017-11-19T22:10:45.855Z,5.70
2017-11-19T22:13:13.352Z,5.60
2017-11-19T22:15:40.892Z,5.60
2017-11-19T22:18:08.393Z,5.60
2017-11-19T22:20:35.920Z,5.60
2017-11-19T22:23:03.439Z,5.60
2017-11-19T22:25:30.976Z,5.50
2017-11-19T22:27:59.244Z,5.50
2017-11-19T22:30:26.775Z,5.40
2017-11-19T22:32:54.266Z,5.40
2017-11-19T22:35:21.758Z,5.40
2017-11-19T22:37:49.285Z,5.40
2017-11-19T22:40:16.782Z,5.40
2017-11-19T22:42:44.325Z,5.50
2017-11-19T22:45:11.862Z,5.60
2017-11-19T22:47:40.157Z,5.70
2017-11-19T22:50:08.439Z,5.70
2017-11-19T22:52:36.761Z,5.70
2017-11-19T22:55:04.250Z,5.70
2017-11-19T22:57:31.754Z,5.70
2017-11-19T22:59:59.291Z,5.60
2017-11-19T23:02:26.778Z,5.60
2017-11-19T23:04:54.303Z,5.50
2017-11-19T23:07:22.578Z,5.50
2017-11-19T23:09:50.126Z,5.50
2017-11-19T23:12:17.615Z,5.50
2017-11-19T23:14:45.142Z,5.50
2017-11-19T23:17:12.631Z,5.50
2017-11-19T23:19:40.192Z,5.50
2017-11-19T23:22:07.694Z,5.50
2017-11-19T23:24:35.199Z,5.50
2017-11-19T23:27:03.493Z,5.40
2017-11-19T23:29:31.746Z,5.40
2017-11-19T23:31:59.282Z,5.30
2017-11-19T23:34:26.774Z,5.40
2017-11-19T23:36:54.300Z,5.30
2017-11-19T23:39:22.572Z,5.30
2017-11-19T23:41:50.877Z,5.30
2017-11-19T23:44:18.375Z,5.30
2017-11-19T23:46:45.867Z,5.30
2017-11-19T23:49:13.394Z,5.30
2017-11-19T23:51:40.883Z,5.30
2017-11-19T23:54:08.442Z,5.30
2017-11-19T23:56:35.963Z,5.30
2017-11-19T23:59:03.521Z,5.30
